KC5LIO Fairhope AL US current weather conditions

sailwx.info

Wind from 248 at 1 knots gusting 1

Air temperature 31.7° C
Dewpoint 24.0° C

Last reported at 2020-Sep-28 15:02 UTC.
Time now 2020-Sep-28 15:55 UTC

Location: N 30°31' W 087°49'.
View on Google Maps.

See reports from other nearby stations

  
Tides and Currents Weather Stations Pressure Air Temp Water Temp Dewpoint Dewpoint Depression Visibility Wind Speed Wind Dir Waves Ship Positions
date/time (UTC)wind fromknots sea level pressurealtimeterstation pressurevisibilityair tempwater tempwave heightnotes
2020-Sep-28 15:02 248 1 gusting 1 31.7
2020-Sep-28 14:47 248 1 gusting 1 31.7
2020-Sep-28 14:32 248 1 gusting 1 31.7
2020-Sep-28 14:17 248 1 gusting 1 31.7
2020-Sep-28 14:02 248 1 gusting 1 31.7
2020-Sep-28 13:47 248 1 gusting 1 31.7
2020-Sep-28 13:32 248 1 gusting 1 31.7
2020-Sep-28 13:17 248 1 gusting 1 31.7
2020-Sep-28 13:02 248 1 gusting 1 31.7
2020-Sep-28 12:47 248 1 gusting 1 31.7
2020-Sep-28 12:32 248 1 gusting 1 31.7
2020-Sep-28 12:17 248 1 gusting 1 31.7
2020-Sep-28 12:02 248 1 gusting 1 31.7
2020-Sep-28 11:47 248 1 gusting 1 31.7
2020-Sep-28 11:32 248 1 gusting 1 31.7
2020-Sep-28 11:17 248 1 gusting 1 31.7
2020-Sep-28 11:02 248 1 gusting 1 31.7
2020-Sep-28 10:47 248 1 gusting 1 31.7
2020-Sep-28 10:32 248 1 gusting 1 31.7
2020-Sep-28 10:17 248 1 gusting 1 31.7
2020-Sep-28 10:02 248 1 gusting 1 31.7
2020-Sep-28 09:47 248 1 gusting 1 31.7
2020-Sep-28 09:32 248 1 gusting 1 31.7
2020-Sep-28 09:17 248 1 gusting 1 31.7
2020-Sep-28 09:02 248 1 gusting 1 31.7
2020-Sep-28 08:47 248 1 gusting 1 31.7
2020-Sep-28 08:32 248 1 gusting 1 31.7
2020-Sep-28 08:17 248 1 gusting 1 31.7
2020-Sep-28 08:02 248 1 gusting 1 31.7
2020-Sep-28 07:47 248 1 gusting 1 31.7
2020-Sep-28 07:32 248 1 gusting 1 31.7
2020-Sep-28 07:17 248 1 gusting 1 31.7
2020-Sep-28 07:02 248 1 gusting 1 31.7
2020-Sep-28 06:47 248 1 gusting 1 31.7
2020-Sep-28 06:32 248 1 gusting 1 31.7
2020-Sep-28 06:17 248 1 gusting 1 31.7
2020-Sep-28 06:02 248 1 gusting 1 31.7
2020-Sep-28 05:47 248 1 gusting 1 31.7
2020-Sep-28 05:32 248 1 gusting 1 31.7
2020-Sep-28 05:17 248 1 gusting 1 31.7
2020-Sep-28 05:02 248 1 gusting 1 31.7
2020-Sep-28 04:47 248 1 gusting 1 31.7
2020-Sep-28 04:32 248 1 gusting 1 31.7
2020-Sep-28 04:17 248 1 gusting 1 31.7
2020-Sep-28 04:02 248 1 gusting 1 31.7
2020-Sep-28 03:47 248 1 gusting 1 31.7
2020-Sep-28 03:32 248 1 gusting 1 31.7
2020-Sep-28 03:17 248 1 gusting 1 31.7
2020-Sep-28 03:02 248 1 gusting 1 31.7
2020-Sep-28 02:47 248 1 gusting 1 31.7
2020-Sep-28 02:32 248 1 gusting 1 31.7
2020-Sep-28 02:17 248 1 gusting 1 31.7
2020-Sep-28 02:02 248 1 gusting 1 31.7
2020-Sep-28 01:47 248 1 gusting 1 31.7
2020-Sep-28 01:32 248 1 gusting 1 31.7
2020-Sep-28 01:17 248 1 gusting 1 31.7
2020-Sep-28 01:02 248 1 gusting 1 31.7
2020-Sep-28 00:47 248 1 gusting 1 31.7
2020-Sep-28 00:32 248 1 gusting 1 31.7
2020-Sep-28 00:17 248 1 gusting 1 31.7
2020-Sep-28 00:02 248 1 gusting 1 31.7
2020-Sep-27 23:47 248 1 gusting 1 31.7
2020-Sep-27 23:32 248 1 gusting 1 31.7
2020-Sep-27 23:17 248 1 gusting 1 31.7
2020-Sep-27 23:02 248 1 gusting 1 31.7
2020-Sep-27 22:47 248 1 gusting 1 31.7
2020-Sep-27 22:32 248 1 gusting 1 31.7
2020-Sep-27 22:17 248 1 gusting 1 31.7
2020-Sep-27 22:02 248 1 gusting 1 31.7
2020-Sep-27 21:47 248 1 gusting 1 31.7
2020-Sep-27 21:32 248 1 gusting 5 31.7
2020-Sep-27 19:02 320 4 gusting 5 32.2
2020-Sep-27 18:02 326 4 gusting 6 31.1
2020-Sep-27 17:47 275 2 gusting 5 30.0
2020-Sep-27 17:32 290 4 gusting 6 30.6
2020-Sep-27 17:17 312 2 gusting 5 31.1
2020-Sep-27 17:02 295 3 gusting 5 30.6
2020-Sep-27 16:47 284 2 gusting 6 30.0
2020-Sep-27 16:32 270 2 gusting 6 30.0
2020-Sep-27 16:17 325 3 gusting 5 30.0
2020-Sep-27 16:02 298 2 gusting 5 29.4
2020-Sep-27 15:47 270 4 gusting 6 28.9
2020-Sep-27 15:32 301 2 gusting 4 29.4
2020-Sep-27 15:17 265 1 gusting 2 27.8
2020-Sep-27 15:02 270 2 gusting 2 28.3
2020-Sep-27 14:47 283 1 gusting 1 26.7
2020-Sep-27 14:32 273 0 gusting 1 27.2
2020-Sep-27 14:17 022 0 gusting 2 27.2
2020-Sep-27 14:02 052 2 gusting 2 26.7
2020-Sep-27 13:47 354 1 gusting 2 26.7
2020-Sep-27 13:32 043 1 gusting 1 25.6
2020-Sep-27 13:17 068 0 gusting 1 24.4
2020-Sep-27 13:02 068 0 gusting 1 24.4
2020-Sep-27 12:47 180 0 gusting 1 23.3
2020-Sep-27 12:32 216 23.3
2020-Sep-27 12:17 272 1 gusting 1 23.3
2020-Sep-27 12:02 292 1 gusting 1 23.3
2020-Sep-27 11:47 112 1 gusting 1 23.9
2020-Sep-27 11:32 306 1 gusting 2 23.9
2020-Sep-27 11:17 180 2 gusting 2 23.9
2020-Sep-27 11:02 199 0 gusting 2 23.3
2020-Sep-27 10:47 158 2 gusting 2 23.3
2020-Sep-27 10:32 292 1 gusting 1 22.8
2020-Sep-27 10:17 332 22.8
2020-Sep-27 10:02 279 0 gusting 1 22.8
2020-Sep-27 09:47 285 0 gusting 1 22.8
2020-Sep-27 09:32 267 22.8
2020-Sep-27 09:17 022 22.8
2020-Sep-27 09:02 022 0 gusting 0 22.8
2020-Sep-27 08:47 292 22.8
2020-Sep-27 08:32 090 22.8
2020-Sep-27 08:17 261 0 gusting 1 22.8
2020-Sep-27 08:02 340 22.2
2020-Sep-27 07:47 270 22.2
2020-Sep-27 07:32 333 0 gusting 1 22.2
2020-Sep-27 07:17 068 21.7
2020-Sep-27 07:02 292 21.7
2020-Sep-27 06:47 172 0 gusting 0 21.7
2020-Sep-27 06:32 112 0 gusting 1 22.2
2020-Sep-27 06:17 255 22.2
2020-Sep-27 06:02 242 21.7
2020-Sep-27 05:47 292 1 gusting 1 21.7
2020-Sep-27 05:32 270 21.7
2020-Sep-27 05:17 338 21.7
2020-Sep-27 05:02 305 21.7
2020-Sep-27 04:47 068 21.7
2020-Sep-27 04:32 338 21.7
2020-Sep-27 04:17 270 21.7
2020-Sep-27 04:02 248 21.7
2020-Sep-27 03:47 358 0 gusting 0 21.7
2020-Sep-27 03:32 303 22.2
2020-Sep-27 03:17 022 22.2
2020-Sep-27 03:02 090 22.8
2020-Sep-27 02:47 158 1 gusting 1 22.8
2020-Sep-27 02:32 158 0 gusting 1 22.8
2020-Sep-27 02:17 170 0 gusting 0 22.8
2020-Sep-27 02:02 128 0 gusting 1 22.8
2020-Sep-27 01:47 180 0 gusting 1 23.3
2020-Sep-27 01:32 072 0 gusting 1 22.8
2020-Sep-27 01:17 135 0 gusting 1 23.3
2020-Sep-27 01:02 018 0 gusting 1 23.3
2020-Sep-27 00:47 112 1 gusting 1 23.9
2020-Sep-27 00:32 180 0 gusting 2 24.4
2020-Sep-27 00:17 135 2 gusting 4 24.4
2020-Sep-27 00:02 134 1 gusting 5 25.0
2020-Sep-26 23:47 144 2 gusting 6 25.6
2020-Sep-26 23:32 112 4 gusting 7 26.1
2020-Sep-26 23:17 138 4 gusting 7 26.7
2020-Sep-26 23:02 180 5 gusting 6 26.7
2020-Sep-26 22:47 136 5 gusting 6 27.2
2020-Sep-26 22:32 174 3 gusting 6 27.2
2020-Sep-26 22:17 158 5 gusting 8 27.2
2020-Sep-26 22:02 112 5 gusting 8 27.8
2020-Sep-26 21:47 156 5 gusting 7 28.3
2020-Sep-26 21:32 144 5 gusting 8 28.3
2020-Sep-26 21:17 149 5 gusting 10 28.9
2020-Sep-26 21:02 133 6 gusting 7 28.3
2020-Sep-26 20:47 176 5 gusting 7 28.9
2020-Sep-26 20:32 158 5 gusting 6 29.4
2020-Sep-26 20:17 189 5 gusting 6 28.9
2020-Sep-26 20:02 134 5 gusting 7 29.4
2020-Sep-26 19:47 158 6 gusting 8 28.9
2020-Sep-26 19:32 125 5 gusting 8 28.9
2020-Sep-26 19:17 104 5 gusting 7 28.9
2020-Sep-26 19:02 086 2 gusting 6 28.3
2020-Sep-26 18:47 103 3 gusting 5 28.3
2020-Sep-26 18:32 114 3 gusting 6 28.3
2020-Sep-26 18:17 112 4 gusting 6 28.3
2020-Sep-26 18:02 144 1 gusting 6 28.9
2020-Sep-26 17:47 136 3 gusting 7 30.0
2020-Sep-26 17:32 180 5 gusting 6 28.9
2020-Sep-26 17:17 102 3 gusting 6 27.8
2020-Sep-26 17:02 097 3 gusting 6 28.3
2020-Sep-26 16:47 045 4 gusting 6 28.3
2020-Sep-26 16:32 075 3 gusting 6 27.2
2020-Sep-26 16:17 056 2 gusting 6 27.2
2020-Sep-26 16:02 052 2 gusting 6 27.2
2020-Sep-26 15:47 089 4 gusting 6 27.8
2020-Sep-26 15:32 109 4 gusting 6 26.7
2020-Sep-26 15:17 095 3 gusting 6 25.6
2020-Sep-26 15:02 112 3 gusting 6 25.6